Time;durP1;ratioP1;P1;durP2;ratioP2;P2;SDS_P1;SDS_P2;PMS_P1;PMS_P2;Temp;Humidity;BMP_temperature;BMP_pressure;BME280_temperature;BME280_humidity;BME280_pressure;Samples;Min_cycle;Max_cycle;Signal;HPM_P1;HPM_P2
2022/11/02 00:00:56;;;;;;;;;;;17.10;99.90;;;;;;5091592;28;19954;-23
2022/11/02 00:03:22;;;;;;;;;;;17.10;99.90;;;;;;5090904;28;19912;-23
2022/11/02 00:05:47;;;;;;;;;;;17.10;99.90;;;;;;5091257;28;20280;-24
2022/11/02 00:08:13;;;;;;;;;;;17.10;99.90;;;;;;5091131;28;19909;-24
2022/11/02 00:10:38;;;;;;;;;;;17.10;99.90;;;;;;5091221;28;19951;-23
2022/11/02 00:13:04;;;;;;;;;;;17.10;99.90;;;;;;5090602;28;19912;-23
2022/11/02 00:15:31;;;;;;;;;;;17.00;99.90;;;;;;5091253;28;19912;-24
2022/11/02 00:18:02;;;;;;;;;;;17.10;99.90;;;;;;5091082;28;19912;-24
2022/11/02 00:20:27;;;;;;;;;;;17.00;99.90;;;;;;5091244;28;20296;-24
2022/11/02 00:22:54;;;;;;;;;;;17.00;99.90;;;;;;5090627;28;20422;-24
2022/11/02 00:25:21;;;;;;;;;;;17.00;99.90;;;;;;5091106;28;20381;-24
2022/11/02 00:27:46;;;;;;;;;;;17.00;99.90;;;;;;5090809;28;19973;-24
2022/11/02 00:30:12;;;;;;;;;;;17.00;99.90;;;;;;5091148;28;20197;-24
2022/11/02 00:32:38;;;;;;;;;;;17.00;99.90;;;;;;5090622;28;20322;-23
2022/11/02 00:35:04;;;;;;;;;;;17.00;99.90;;;;;;5090956;28;19961;-23
2022/11/02 00:37:29;;;;;;;;;;;17.00;99.90;;;;;;5090890;28;19954;-24
2022/11/02 00:39:55;;;;;;;;;;;17.00;99.90;;;;;;5090786;28;19916;-23
2022/11/02 00:42:20;;;;;;;;;;;17.00;99.90;;;;;;5090672;28;20336;-23
2022/11/02 00:44:46;;;;;;;;;;;17.00;99.90;;;;;;5090690;28;20350;-23
2022/11/02 00:47:11;;;;;;;;;;;17.00;99.90;;;;;;5090809;28;19912;-23
2022/11/02 00:49:37;;;;;;;;;;;17.00;99.90;;;;;;5090817;28;20377;-23
2022/11/02 00:52:02;;;;;;;;;;;16.90;99.90;;;;;;5090889;28;19915;-23
2022/11/02 00:54:28;;;;;;;;;;;17.00;99.90;;;;;;5090399;28;19908;-24
2022/11/02 00:56:53;;;;;;;;;;;16.90;99.90;;;;;;5092420;28;19922;-23
2022/11/02 00:59:19;;;;;;;;;;;16.90;99.90;;;;;;5095265;28;20266;-23
2022/11/02 01:01:46;;;;;;;;;;;16.90;99.90;;;;;;5095486;28;20007;-23
2022/11/02 01:04:16;;;;;;;;;;;16.90;99.90;;;;;;5094347;28;19912;-24
2022/11/02 01:06:42;;;;;;;;;;;16.90;99.90;;;;;;5094797;28;19908;-24
2022/11/02 01:09:08;;;;;;;;;;;16.90;99.90;;;;;;5094777;28;19919;-24
2022/11/02 01:11:33;;;;;;;;;;;16.90;99.90;;;;;;5094557;28;19919;-24
2022/11/02 01:13:59;;;;;;;;;;;16.90;99.90;;;;;;5094564;28;19908;-24
2022/11/02 01:16:25;;;;;;;;;;;16.90;99.90;;;;;;5094620;28;19930;-23
2022/11/02 01:18:52;;;;;;;;;;;16.90;99.90;;;;;;5094519;28;19909;-24
2022/11/02 01:21:17;;;;;;;;;;;16.90;99.90;;;;;;5094575;28;19912;-24
2022/11/02 01:23:43;;;;;;;;;;;16.90;99.90;;;;;;5094009;28;20397;-23
2022/11/02 01:26:09;;;;;;;;;;;16.90;99.90;;;;;;5094594;28;20293;-24
2022/11/02 01:28:35;;;;;;;;;;;16.90;99.90;;;;;;5094315;28;19915;-24
2022/11/02 01:31:01;;;;;;;;;;;16.90;99.90;;;;;;5095184;28;19908;-23
2022/11/02 01:33:26;;;;;;;;;;;16.90;99.90;;;;;;5095218;28;20400;-24
2022/11/02 01:35:52;;;;;;;;;;;16.90;99.90;;;;;;5094622;28;19908;-24
2022/11/02 01:38:18;;;;;;;;;;;16.90;99.90;;;;;;5094657;28;19912;-24
2022/11/02 01:40:44;;;;;;;;;;;16.90;99.90;;;;;;5094336;28;19998;-24
2022/11/02 01:43:18;;;;;;;;;;;16.90;99.90;;;;;;5094037;28;19912;-24
2022/11/02 01:45:45;;;;;;;;;;;16.90;99.90;;;;;;5094331;28;20006;-23
2022/11/02 01:48:11;;;;;;;;;;;16.90;99.90;;;;;;5094290;28;19912;-24
2022/11/02 01:50:37;;;;;;;;;;;16.80;99.90;;;;;;5094312;28;20395;-24
2022/11/02 01:53:03;;;;;;;;;;;16.80;99.90;;;;;;5093557;28;19999;-24
2022/11/02 01:55:31;;;;;;;;;;;16.80;99.90;;;;;;5094240;28;20379;-24
2022/11/02 01:57:58;;;;;;;;;;;16.80;99.90;;;;;;5093940;28;19936;-24
2022/11/02 02:00:24;;;;;;;;;;;16.80;99.90;;;;;;5094604;28;20287;-24
2022/11/02 02:03:13;;;;;;;;;;;16.80;99.90;;;;;;5093292;28;20353;-23
2022/11/02 02:05:40;;;;;;;;;;;16.80;99.90;;;;;;5094064;28;19916;-23
2022/11/02 02:08:07;;;;;;;;;;;16.80;99.90;;;;;;5092411;28;19955;-24
2022/11/02 02:10:33;;;;;;;;;;;16.80;99.90;;;;;;5093782;28;20113;-24
2022/11/02 02:12:59;;;;;;;;;;;16.80;99.90;;;;;;5093140;28;20017;-24
2022/11/02 02:15:33;;;;;;;;;;;16.80;99.90;;;;;;5093427;28;19990;-23
2022/11/02 02:18:18;;;;;;;;;;;16.80;99.90;;;;;;5093146;28;20019;-24
2022/11/02 02:20:43;;;;;;;;;;;16.80;99.90;;;;;;5093378;28;19978;-24
2022/11/02 02:23:10;;;;;;;;;;;16.80;99.90;;;;;;5092892;28;20375;-24
2022/11/02 02:25:54;;;;;;;;;;;16.70;99.90;;;;;;5093076;28;19916;-23
2022/11/02 02:28:35;;;;;;;;;;;16.80;99.90;;;;;;5092837;28;20284;-24
2022/11/02 02:31:01;;;;;;;;;;;16.80;99.90;;;;;;5093017;28;20262;-24
2022/11/02 02:33:39;;;;;;;;;;;16.80;99.90;;;;;;5092713;28;19961;-24
2022/11/02 02:36:09;;;;;;;;;;;16.80;99.90;;;;;;5093293;28;19908;-24
2022/11/02 02:38:41;;;;;;;;;;;16.80;99.90;;;;;;5092947;28;20388;-24
2022/11/02 02:41:14;;;;;;;;;;;16.70;99.90;;;;;;5093123;28;20315;-24
2022/11/02 02:43:45;;;;;;;;;;;16.70;99.90;;;;;;5092520;28;20187;-24
2022/11/02 02:46:22;;;;;;;;;;;16.70;99.90;;;;;;5093100;28;19965;-24
2022/11/02 02:48:49;;;;;;;;;;;16.70;99.90;;;;;;5092553;28;20011;-24
2022/11/02 02:51:26;;;;;;;;;;;16.70;99.90;;;;;;5092536;28;19915;-23
2022/11/02 02:53:56;;;;;;;;;;;16.70;99.90;;;;;;5090927;28;19953;-24
2022/11/02 02:56:23;;;;;;;;;;;16.70;99.90;;;;;;5092679;28;19912;-24
2022/11/02 02:58:55;;;;;;;;;;;16.70;99.90;;;;;;5092641;28;19957;-24
2022/11/02 03:01:21;;;;;;;;;;;16.70;99.90;;;;;;5092753;28;19940;-24
2022/11/02 03:03:47;;;;;;;;;;;16.70;99.90;;;;;;5092071;28;19912;-23
2022/11/02 03:06:14;;;;;;;;;;;16.70;99.90;;;;;;5092566;28;19958;-24
2022/11/02 03:08:42;;;;;;;;;;;16.70;99.90;;;;;;5092209;28;19909;-23
2022/11/02 03:11:12;;;;;;;;;;;16.70;99.90;;;;;;5091021;28;19923;-24
2022/11/02 03:13:52;;;;;;;;;;;16.70;99.90;;;;;;5092212;28;20355;-24
2022/11/02 03:16:20;;;;;;;;;;;16.70;99.90;;;;;;5093372;28;19957;-24
2022/11/02 03:18:55;;;;;;;;;;;16.70;99.90;;;;;;5092154;28;19930;-23
2022/11/02 03:21:39;;;;;;;;;;;16.70;99.90;;;;;;5092292;28;19915;-23
2022/11/02 03:24:04;;;;;;;;;;;16.70;99.90;;;;;;5091954;28;19924;-23
2022/11/02 03:26:56;;;;;;;;;;;16.70;99.90;;;;;;5092243;28;19918;-24
2022/11/02 03:29:27;;;;;;;;;;;16.70;99.90;;;;;;5075956;28;19912;-24
2022/11/02 03:31:57;;;;;;;;;;;16.70;99.90;;;;;;5091981;28;19914;-23
2022/11/02 03:34:22;;;;;;;;;;;16.70;99.90;;;;;;5091391;28;19916;-24
2022/11/02 03:36:50;;;;;;;;;;;16.60;99.90;;;;;;5091958;28;19961;-24
2022/11/02 03:39:19;;;;;;;;;;;16.70;99.90;;;;;;5091411;28;19920;-24
2022/11/02 03:41:45;;;;;;;;;;;16.70;99.90;;;;;;5092500;28;19914;-24
2022/11/02 03:44:12;;;;;;;;;;;16.70;99.90;;;;;;5091926;28;19912;-23
2022/11/02 03:46:39;;;;;;;;;;;16.60;99.90;;;;;;5091844;28;19923;-24
2022/11/02 03:49:06;;;;;;;;;;;16.60;99.90;;;;;;5092021;28;20314;-24
2022/11/02 03:51:33;;;;;;;;;;;16.60;99.90;;;;;;5091698;28;19957;-24
2022/11/02 03:54:05;;;;;;;;;;;16.60;99.90;;;;;;5091224;28;19915;-23
2022/11/02 03:56:34;;;;;;;;;;;16.60;99.90;;;;;;5092346;28;19915;-23
2022/11/02 03:58:59;;;;;;;;;;;16.60;99.90;;;;;;5091544;28;19908;-23
2022/11/02 04:01:26;;;;;;;;;;;16.60;99.90;;;;;;5091476;28;20292;-24
2022/11/02 04:03:51;;;;;;;;;;;16.60;99.90;;;;;;5090817;28;19963;-24
2022/11/02 04:06:17;;;;;;;;;;;16.60;99.90;;;;;;5091382;28;19955;-24
2022/11/02 04:08:43;;;;;;;;;;;16.60;99.90;;;;;;5091320;28;19947;-24
2022/11/02 04:16:38;;;;;;;;;;;16.60;99.90;;;;;;5091411;28;19953;-23
2022/11/02 04:27:17;;;;;;;;;;;16.60;99.90;;;;;;5091359;28;19919;-24
2022/11/02 04:29:42;;;;;;;;;;;16.50;99.90;;;;;;5091170;28;19908;-24
2022/11/02 04:32:08;;;;;;;;;;;16.60;99.90;;;;;;5092907;28;19912;-24
2022/11/02 04:34:33;;;;;;;;;;;16.60;99.90;;;;;;5095230;28;19912;-24
2022/11/02 04:36:59;;;;;;;;;;;16.50;99.90;;;;;;5095288;28;19958;-23
2022/11/02 04:39:24;;;;;;;;;;;16.50;99.90;;;;;;5095033;28;19993;-23
2022/11/02 04:41:50;;;;;;;;;;;16.50;99.90;;;;;;5095189;28;19915;-24
2022/11/02 04:44:16;;;;;;;;;;;16.50;99.90;;;;;;5094849;28;19912;-24
2022/11/02 04:46:42;;;;;;;;;;;16.50;99.90;;;;;;5095402;28;20392;-24
2022/11/02 04:49:09;;;;;;;;;;;16.50;99.90;;;;;;5095114;28;19934;-24
2022/11/02 04:51:35;;;;;;;;;;;16.50;99.90;;;;;;5095047;28;19912;-24
2022/11/02 04:54:01;;;;;;;;;;;16.50;99.90;;;;;;5094856;28;20281;-24
2022/11/02 04:56:27;;;;;;;;;;;16.50;99.90;;;;;;5095073;28;20262;-24
2022/11/02 04:58:54;;;;;;;;;;;16.50;99.90;;;;;;5093750;28;19961;-24
2022/11/02 05:01:20;;;;;;;;;;;16.50;99.90;;;;;;5095048;28;20261;-24
2022/11/02 05:03:47;;;;;;;;;;;16.50;99.90;;;;;;5094508;28;19948;-24
2022/11/02 05:06:13;;;;;;;;;;;16.50;99.90;;;;;;5094991;28;19998;-24
2022/11/02 05:08:38;;;;;;;;;;;16.50;99.90;;;;;;5094846;28;19965;-24
2022/11/02 05:11:04;;;;;;;;;;;16.50;99.90;;;;;;5095045;28;19999;-23
2022/11/02 05:13:30;;;;;;;;;;;16.50;99.90;;;;;;5094365;28;20368;-24
2022/11/02 05:15:56;;;;;;;;;;;16.50;99.90;;;;;;5095250;28;19912;-24
2022/11/02 05:18:21;;;;;;;;;;;16.50;99.90;;;;;;5094607;28;19912;-24
2022/11/02 05:20:51;;;;;;;;;;;16.40;99.90;;;;;;5093046;28;19918;-24
2022/11/02 05:23:16;;;;;;;;;;;16.40;99.90;;;;;;5094674;28;19923;-24
2022/11/02 05:25:42;;;;;;;;;;;16.40;99.90;;;;;;5094708;28;19908;-24
2022/11/02 05:28:07;;;;;;;;;;;16.40;99.90;;;;;;5094295;28;19962;-23
2022/11/02 05:30:33;;;;;;;;;;;16.40;99.90;;;;;;5094385;28;20276;-24
2022/11/02 05:32:58;;;;;;;;;;;16.40;99.90;;;;;;5093823;28;19915;-24
2022/11/02 05:35:24;;;;;;;;;;;16.40;99.90;;;;;;5094255;28;20369;-23
2022/11/02 05:37:49;;;;;;;;;;;16.40;99.90;;;;;;5092523;28;20393;-24
2022/11/02 05:40:15;;;;;;;;;;;16.50;99.90;;;;;;5094302;28;20388;-24
2022/11/02 05:42:40;;;;;;;;;;;16.40;99.90;;;;;;5093323;28;19913;-23
2022/11/02 05:45:06;;;;;;;;;;;16.40;99.90;;;;;;5093645;28;19923;-24
2022/11/02 05:47:32;;;;;;;;;;;16.40;99.90;;;;;;5093835;28;19962;-24
2022/11/02 05:49:58;;;;;;;;;;;16.40;99.90;;;;;;5093800;28;19965;-24
2022/11/02 05:52:23;;;;;;;;;;;16.40;99.90;;;;;;5093739;28;19908;-24
2022/11/02 05:54:49;;;;;;;;;;;16.40;99.90;;;;;;5093740;28;20266;-23
2022/11/02 05:57:16;;;;;;;;;;;16.40;99.90;;;;;;5093785;28;20002;-24
2022/11/02 05:59:41;;;;;;;;;;;16.40;99.90;;;;;;5093795;28;19908;-24
2022/11/02 06:02:07;;;;;;;;;;;16.40;99.90;;;;;;5094152;28;19916;-23
2022/11/02 06:04:32;;;;;;;;;;;16.40;99.90;;;;;;5093067;28;20026;-24
2022/11/02 06:06:58;;;;;;;;;;;16.40;99.90;;;;;;5093449;28;20392;-24
2022/11/02 06:09:23;;;;;;;;;;;16.40;99.90;;;;;;5093142;28;20014;-23
2022/11/02 06:11:49;;;;;;;;;;;16.30;99.90;;;;;;5093408;28;19919;-23
2022/11/02 06:14:14;;;;;;;;;;;16.40;99.90;;;;;;5093042;28;19920;-24
2022/11/02 06:16:40;;;;;;;;;;;16.30;99.90;;;;;;5093762;28;19908;-24
2022/11/02 06:19:05;;;;;;;;;;;16.40;99.90;;;;;;5093070;28;19908;-24
2022/11/02 06:21:31;;;;;;;;;;;16.40;99.90;;;;;;5093202;28;20323;-24
2022/11/02 06:23:57;;;;;;;;;;;16.40;99.90;;;;;;5092503;28;19916;-24
2022/11/02 06:26:23;;;;;;;;;;;16.40;99.90;;;;;;5093286;28;19987;-24
2022/11/02 06:28:49;;;;;;;;;;;16.40;99.90;;;;;;5092893;28;19954;-24
2022/11/02 06:31:16;;;;;;;;;;;16.30;99.90;;;;;;5093181;28;20310;-23
2022/11/02 06:33:42;;;;;;;;;;;16.30;99.90;;;;;;5092434;28;19911;-24
2022/11/02 06:36:08;;;;;;;;;;;16.30;99.90;;;;;;5093082;28;19935;-23
2022/11/02 06:38:33;;;;;;;;;;;16.30;99.90;;;;;;5092501;28;19916;-24
2022/11/02 06:41:02;;;;;;;;;;;16.30;99.90;;;;;;5092653;28;19912;-24
2022/11/02 06:43:27;;;;;;;;;;;16.30;99.90;;;;;;5092433;28;19915;-23
2022/11/02 06:45:54;;;;;;;;;;;16.30;99.90;;;;;;5092785;28;19908;-24
2022/11/02 06:48:20;;;;;;;;;;;16.30;99.90;;;;;;5092587;28;20408;-24
2022/11/02 06:50:45;;;;;;;;;;;16.30;99.90;;;;;;5092623;28;19912;-23
2022/11/02 06:53:11;;;;;;;;;;;16.30;99.90;;;;;;5092049;28;19919;-24
2022/11/02 06:55:36;;;;;;;;;;;16.30;99.90;;;;;;5092043;28;19965;-24
2022/11/02 06:58:02;;;;;;;;;;;16.30;99.90;;;;;;5092428;28;20285;-24
2022/11/02 07:00:28;;;;;;;;;;;16.30;99.90;;;;;;5091259;28;19912;-24
2022/11/02 07:03:00;;;;;;;;;;;16.30;99.90;;;;;;5092092;28;19953;-24
2022/11/02 07:05:25;;;;;;;;;;;16.30;99.90;;;;;;5092228;28;20006;-23
2022/11/02 07:07:54;;;;;;;;;;;16.30;99.90;;;;;;5092189;28;19994;-24
2022/11/02 07:10:20;;;;;;;;;;;16.30;99.90;;;;;;5092305;28;19912;-24
2022/11/02 07:12:45;;;;;;;;;;;16.30;99.90;;;;;;5091796;28;20258;-23
2022/11/02 07:15:11;;;;;;;;;;;16.30;99.90;;;;;;5092525;28;19912;-23
2022/11/02 07:17:40;;;;;;;;;;;16.30;99.90;;;;;;5091991;28;19939;-24
2022/11/02 07:20:06;;;;;;;;;;;16.30;99.90;;;;;;5091847;28;19947;-24
2022/11/02 07:22:31;;;;;;;;;;;16.30;99.90;;;;;;5091723;28;19907;-24
2022/11/02 07:24:57;;;;;;;;;;;16.30;99.90;;;;;;5092257;28;20440;-24
2022/11/02 07:27:22;;;;;;;;;;;16.30;99.90;;;;;;5091864;28;20281;-24
2022/11/02 07:29:48;;;;;;;;;;;16.30;99.90;;;;;;5091829;28;19912;-24
2022/11/02 07:32:13;;;;;;;;;;;16.30;99.90;;;;;;5091680;28;19931;-24
2022/11/02 07:34:39;;;;;;;;;;;16.30;99.90;;;;;;5091321;28;19908;-23
2022/11/02 07:37:04;;;;;;;;;;;16.30;99.90;;;;;;5091780;28;20357;-24
2022/11/02 07:39:30;;;;;;;;;;;16.30;99.90;;;;;;5128702;22;19939;-26
2022/11/02 07:41:56;;;;;;;;;;;16.30;99.90;;;;;;5091630;28;19955;-26
2022/11/02 07:44:21;;;;;;;;;;;16.30;99.90;;;;;;5091050;28;19916;-26
2022/11/02 07:46:46;;;;;;;;;;;16.30;99.90;;;;;;5091505;28;20498;-26
2022/11/02 07:49:12;;;;;;;;;;;16.30;99.90;;;;;;5090499;28;19915;-26
2022/11/02 07:51:37;;;;;;;;;;;16.30;99.90;;;;;;5091580;28;19931;-25
2022/11/02 07:54:03;;;;;;;;;;;16.30;99.90;;;;;;5091062;28;19909;-26
2022/11/02 07:56:28;;;;;;;;;;;16.40;99.90;;;;;;5091570;28;19965;-26
2022/11/02 07:58:54;;;;;;;;;;;16.40;99.90;;;;;;5091453;28;20019;-26
2022/11/02 08:01:20;;;;;;;;;;;16.40;99.90;;;;;;5091292;28;19922;-25
2022/11/02 08:03:45;;;;;;;;;;;16.40;99.90;;;;;;5090932;28;19916;-26
2022/11/02 08:06:10;;;;;;;;;;;16.40;99.90;;;;;;5091442;28;19958;-26
2022/11/02 08:08:36;;;;;;;;;;;16.40;99.90;;;;;;5091465;28;20345;-26
2022/11/02 08:11:03;;;;;;;;;;;16.40;99.90;;;;;;5091332;28;19918;-26
2022/11/02 08:13:29;;;;;;;;;;;16.40;99.90;;;;;;5090934;28;19916;-26
2022/11/02 08:15:54;;;;;;;;;;;16.40;99.90;;;;;;5091260;28;19909;-26
2022/11/02 08:18:21;;;;;;;;;;;16.40;99.90;;;;;;5091325;28;19912;-25
2022/11/02 08:20:47;;;;;;;;;;;16.50;99.90;;;;;;5091319;28;20003;-25
2022/11/02 08:23:17;;;;;;;;;;;16.40;99.90;;;;;;5090849;28;20011;-25
2022/11/02 08:25:44;;;;;;;;;;;16.40;99.90;;;;;;5091244;28;19918;-25
2022/11/02 08:28:11;;;;;;;;;;;16.50;99.90;;;;;;5090875;28;19912;-25
2022/11/02 08:30:37;;;;;;;;;;;16.40;99.90;;;;;;5090894;28;20349;-25
2022/11/02 08:33:03;;;;;;;;;;;16.20;99.90;;;;;;5090540;28;19912;-25
2022/11/02 08:35:29;;;;;;;;;;;16.20;99.90;;;;;;5091220;28;20357;-25
2022/11/02 08:37:55;;;;;;;;;;;16.10;99.90;;;;;;5090962;28;19908;-25
2022/11/02 08:40:21;;;;;;;;;;;16.10;99.90;;;;;;5093026;28;20385;-24
2022/11/02 08:42:46;;;;;;;;;;;16.20;99.90;;;;;;5090920;28;19912;-25
2022/11/02 08:45:12;;;;;;;;;;;16.20;99.90;;;;;;5091248;28;19919;-25
2022/11/02 08:47:40;;;;;;;;;;;16.30;99.90;;;;;;5090894;28;20380;-25
2022/11/02 08:50:07;;;;;;;;;;;16.20;99.90;;;;;;5090860;28;20406;-25
2022/11/02 08:52:39;;;;;;;;;;;16.30;99.90;;;;;;5090504;28;19942;-25
2022/11/02 08:55:05;;;;;;;;;;;16.30;99.90;;;;;;5091031;28;19908;-25
2022/11/02 08:57:30;;;;;;;;;;;16.30;99.90;;;;;;5090721;28;19994;-25
2022/11/02 08:59:56;;;;;;;;;;;16.30;99.90;;;;;;5090947;28;20004;-25
2022/11/02 09:02:21;;;;;;;;;;;16.30;99.90;;;;;;5090669;28;20388;-25
2022/11/02 09:04:46;;;;;;;;;;;16.40;99.90;;;;;;5090408;28;19912;-25
2022/11/02 09:07:12;;;;;;;;;;;16.40;99.90;;;;;;5089591;28;19912;-25
2022/11/02 09:09:38;;;;;;;;;;;16.40;99.90;;;;;;5090623;28;19915;-25
2022/11/02 09:12:03;;;;;;;;;;;16.40;99.90;;;;;;5090279;28;19915;-25
2022/11/02 09:14:29;;;;;;;;;;;16.40;99.90;;;;;;5090534;28;19919;-25
2022/11/02 09:16:54;;;;;;;;;;;16.40;99.90;;;;;;5090864;28;19991;-25
2022/11/02 09:19:20;;;;;;;;;;;16.40;99.90;;;;;;5093863;28;19912;-25
2022/11/02 09:21:46;;;;;;;;;;;16.30;99.90;;;;;;5094317;28;19908;-25
2022/11/02 09:24:12;;;;;;;;;;;16.20;99.90;;;;;;5093863;28;20006;-25
2022/11/02 09:26:37;;;;;;;;;;;16.10;99.90;;;;;;5094183;28;20412;-25
2022/11/02 09:29:03;;;;;;;;;;;16.10;99.90;;;;;;5094286;28;19915;-25
2022/11/02 09:31:29;;;;;;;;;;;16.10;99.90;;;;;;5094423;28;19907;-25
2022/11/02 09:33:54;;;;;;;;;;;16.20;99.90;;;;;;5093725;28;20372;-25
2022/11/02 09:36:20;;;;;;;;;;;16.20;99.90;;;;;;5094124;28;19923;-25
2022/11/02 09:38:45;;;;;;;;;;;16.20;99.90;;;;;;5093950;28;19920;-25
2022/11/02 09:41:25;;;;;;;;;;;16.20;99.90;;;;;;5094006;28;19916;-25
2022/11/02 09:43:54;;;;;;;;;;;16.30;99.90;;;;;;5093210;28;19920;-25
2022/11/02 09:46:20;;;;;;;;;;;16.30;99.90;;;;;;5093867;28;19912;-25
2022/11/02 09:48:53;;;;;;;;;;;16.30;99.90;;;;;;5093812;28;20406;-25
2022/11/02 09:51:20;;;;;;;;;;;16.30;99.90;;;;;;5093856;28;20280;-25
2022/11/02 09:54:00;;;;;;;;;;;16.30;99.90;;;;;;5093178;28;19913;-25
2022/11/02 09:56:26;;;;;;;;;;;16.30;99.90;;;;;;5093776;28;20002;-25
2022/11/02 09:58:58;;;;;;;;;;;16.30;99.90;;;;;;5093323;28;20277;-25
2022/11/02 10:01:42;;;;;;;;;;;16.30;99.90;;;;;;5093582;28;19957;-25
2022/11/02 10:04:08;;;;;;;;;;;16.30;99.90;;;;;;5093219;28;20010;-25
2022/11/02 10:06:34;;;;;;;;;;;16.30;99.90;;;;;;5092036;28;20003;-25
2022/11/02 10:09:03;;;;;;;;;;;16.30;99.90;;;;;;5093183;28;19908;-25
2022/11/02 10:11:31;;;;;;;;;;;16.30;99.90;;;;;;5093122;28;20002;-25
2022/11/02 10:13:56;;;;;;;;;;;16.30;99.90;;;;;;5092819;28;19908;-25
2022/11/02 10:16:25;;;;;;;;;;;16.30;99.90;;;;;;5093089;28;19957;-25
2022/11/02 10:18:52;;;;;;;;;;;16.30;99.90;;;;;;5092766;28;19919;-25
2022/11/02 10:21:19;;;;;;;;;;;16.30;99.90;;;;;;5093185;28;20213;-25
2022/11/02 10:23:48;;;;;;;;;;;16.30;99.90;;;;;;5092468;28;19912;-25
2022/11/02 10:26:18;;;;;;;;;;;16.30;99.90;;;;;;5093034;28;20339;-25
2022/11/02 10:28:45;;;;;;;;;;;16.30;99.90;;;;;;5092175;28;20019;-25
2022/11/02 10:31:19;;;;;;;;;;;16.30;99.90;;;;;;5092317;28;19955;-25
2022/11/02 10:33:44;;;;;;;;;;;16.30;99.90;;;;;;5092494;28;19958;-25
2022/11/02 10:36:10;;;;;;;;;;;16.30;99.90;;;;;;5092768;28;20389;-25
2022/11/02 10:38:47;;;;;;;;;;;16.30;99.90;;;;;;5092516;28;20309;-25
2022/11/02 10:41:32;;;;;;;;;;;16.30;99.90;;;;;;5092603;28;20361;-25
2022/11/02 10:44:16;;;;;;;;;;;16.30;99.90;;;;;;5092530;28;20395;-25
2022/11/02 10:46:47;;;;;;;;;;;16.30;99.90;;;;;;5092637;28;20049;-25
2022/11/02 10:49:15;;;;;;;;;;;16.30;99.90;;;;;;5092380;28;19963;-25
2022/11/02 10:51:41;;;;;;;;;;;16.30;99.90;;;;;;5091219;28;20361;-25
2022/11/02 10:54:11;;;;;;;;;;;16.30;99.90;;;;;;5091909;28;19919;-25
2022/11/02 10:56:37;;;;;;;;;;;16.30;99.90;;;;;;5092458;28;19912;-25
2022/11/02 10:59:12;;;;;;;;;;;16.30;99.90;;;;;;5092286;28;19995;-25
2022/11/02 11:01:43;;;;;;;;;;;16.30;99.90;;;;;;5092238;28;20404;-25
2022/11/02 11:04:31;;;;;;;;;;;16.30;99.90;;;;;;5091783;28;20003;-25
2022/11/02 11:07:02;;;;;;;;;;;16.40;99.90;;;;;;5086342;28;19931;-25
2022/11/02 11:09:30;;;;;;;;;;;16.40;99.90;;;;;;5090797;28;19947;-25
2022/11/02 11:12:06;;;;;;;;;;;16.40;99.90;;;;;;5092421;28;19912;-25
2022/11/02 11:14:54;;;;;;;;;;;16.40;99.90;;;;;;5091643;28;20081;-25
2022/11/02 11:17:23;;;;;;;;;;;16.40;99.90;;;;;;5086128;28;19908;-25
2022/11/02 11:19:53;;;;;;;;;;;16.40;99.90;;;;;;5091985;28;19912;-25
2022/11/02 11:22:23;;;;;;;;;;;16.50;99.90;;;;;;5092066;28;19918;-25
2022/11/02 11:24:48;;;;;;;;;;;16.50;99.90;;;;;;5092010;28;19969;-25
2022/11/02 11:27:18;;;;;;;;;;;16.50;99.90;;;;;;5090609;28;19908;-25
2022/11/02 11:29:57;;;;;;;;;;;16.60;99.90;;;;;;5091676;28;20003;-25
2022/11/02 11:32:28;;;;;;;;;;;16.60;99.90;;;;;;5091690;28;19951;-25
2022/11/02 11:34:57;;;;;;;;;;;16.60;99.90;;;;;;5092199;28;19908;-25
2022/11/02 11:37:23;;;;;;;;;;;16.60;99.90;;;;;;5091703;28;19912;-25
2022/11/02 11:39:50;;;;;;;;;;;16.60;99.90;;;;;;5091571;28;19943;-25
2022/11/02 11:42:17;;;;;;;;;;;16.70;99.90;;;;;;5091630;28;20003;-25
2022/11/02 11:44:45;;;;;;;;;;;16.70;99.90;;;;;;5091710;28;20445;-25
2022/11/02 11:47:11;;;;;;;;;;;16.70;99.90;;;;;;5092552;28;19991;-25
2022/11/02 11:49:44;;;;;;;;;;;16.70;99.90;;;;;;5092641;28;19908;-25
2022/11/02 11:52:15;;;;;;;;;;;16.80;99.90;;;;;;5092204;28;19916;-25
2022/11/02 11:54:50;;;;;;;;;;;16.80;99.90;;;;;;5091422;28;20277;-25
2022/11/02 11:57:32;;;;;;;;;;;16.60;99.90;;;;;;5091640;28;20003;-25
2022/11/02 12:00:00;;;;;;;;;;;16.60;99.90;;;;;;5091673;28;20315;-25
2022/11/02 12:02:30;;;;;;;;;;;16.70;99.90;;;;;;5091188;28;19908;-25
2022/11/02 12:05:00;;;;;;;;;;;16.70;99.90;;;;;;5091228;28;19920;-25
2022/11/02 12:07:44;;;;;;;;;;;16.70;99.90;;;;;;5091236;28;20418;-25
2022/11/02 12:10:21;;;;;;;;;;;16.80;99.90;;;;;;5091119;28;19958;-25
2022/11/02 12:13:05;;;;;;;;;;;16.80;99.90;;;;;;5090497;28;19912;-25
2022/11/02 12:15:49;;;;;;;;;;;16.80;99.90;;;;;;5090646;28;20315;-25
2022/11/02 12:18:21;;;;;;;;;;;16.80;99.90;;;;;;5091049;28;19912;-25
2022/11/02 12:20:52;;;;;;;;;;;16.80;99.90;;;;;;5091378;28;19908;-25
2022/11/02 12:23:36;;;;;;;;;;;16.80;99.90;;;;;;5090684;28;19998;-25
2022/11/02 12:26:01;;;;;;;;;;;16.80;99.90;;;;;;5091094;28;19916;-25
2022/11/02 12:28:40;;;;;;;;;;;16.90;99.90;;;;;;5090985;28;19916;-25
2022/11/02 12:31:12;;;;;;;;;;;16.90;99.90;;;;;;5091155;28;20405;-25
2022/11/02 12:33:56;;;;;;;;;;;16.90;99.90;;;;;;5090654;28;20281;-25
2022/11/02 12:36:27;;;;;;;;;;;16.90;99.90;;;;;;5091183;28;19909;-25
2022/11/02 12:39:03;;;;;;;;;;;16.90;99.90;;;;;;5090807;28;20285;-25
2022/11/02 12:41:40;;;;;;;;;;;17.00;99.90;;;;;;5090942;28;19908;-25
2022/11/02 12:44:14;;;;;;;;;;;17.00;99.90;;;;;;5090463;28;20252;-25
2022/11/02 12:46:50;;;;;;;;;;;17.10;99.90;;;;;;5090708;28;19908;-25
2022/11/02 12:49:32;;;;;;;;;;;17.10;99.90;;;;;;5090695;28;19933;-25
2022/11/02 12:52:03;;;;;;;;;;;17.10;99.90;;;;;;5090910;28;19916;-25
2022/11/02 12:54:54;;;;;;;;;;;17.20;99.90;;;;;;5094369;28;20403;-25
2022/11/02 12:57:24;;;;;;;;;;;17.20;99.90;;;;;;5092552;28;20014;-25
2022/11/02 12:59:53;;;;;;;;;;;17.20;99.90;;;;;;5094783;28;19912;-25
2022/11/02 13:02:27;;;;;;;;;;;17.20;99.90;;;;;;5094732;28;19912;-25
2022/11/02 13:04:53;;;;;;;;;;;17.20;99.90;;;;;;5094591;28;19912;-25
2022/11/02 13:07:25;;;;;;;;;;;17.20;99.90;;;;;;5094591;28;19993;-25
2022/11/02 13:10:14;;;;;;;;;;;17.30;99.90;;;;;;5094738;28;19912;-25
2022/11/02 13:12:41;;;;;;;;;;;17.30;99.90;;;;;;5094101;28;19920;-25
2022/11/02 13:15:12;;;;;;;;;;;17.20;99.90;;;;;;5094467;28;19915;-25
2022/11/02 13:17:40;;;;;;;;;;;17.30;99.90;;;;;;5094468;28;20374;-25
2022/11/02 13:20:06;;;;;;;;;;;17.30;99.90;;;;;;5093679;28;19995;-25
2022/11/02 13:22:34;;;;;;;;;;;17.30;99.90;;;;;;5093450;28;20034;-25
2022/11/02 13:25:23;;;;;;;;;;;17.30;99.90;;;;;;5093671;28;19965;-25
2022/11/02 13:28:00;;;;;;;;;;;17.30;99.90;;;;;;5087963;28;19918;-25
2022/11/02 13:30:27;;;;;;;;;;;17.30;99.90;;;;;;5093947;28;19908;-25
2022/11/02 13:32:58;;;;;;;;;;;17.30;99.90;;;;;;5093853;28;19919;-25
2022/11/02 13:35:27;;;;;;;;;;;17.30;99.90;;;;;;5094116;28;19947;-25
2022/11/02 13:38:19;;;;;;;;;;;17.30;99.90;;;;;;5094054;28;19912;-25
2022/11/02 13:40:47;;;;;;;;;;;17.30;99.90;;;;;;5114156;22;19955;-23
2022/11/02 13:43:28;;;;;;;;;;;17.30;99.90;;;;;;5093748;28;19916;-23
2022/11/02 13:46:17;;;;;;;;;;;17.30;99.90;;;;;;5093977;28;19912;-23
2022/11/02 13:48:46;;;;;;;;;;;17.20;99.90;;;;;;5073652;28;19908;-23
2022/11/02 13:51:26;;;;;;;;;;;17.30;99.90;;;;;;5093910;28;19908;-23
2022/11/02 13:53:54;;;;;;;;;;;17.30;99.90;;;;;;5093341;28;19908;-23
2022/11/02 13:56:21;;;;;;;;;;;17.30;99.90;;;;;;5093869;28;20009;-23
2022/11/02 13:58:52;;;;;;;;;;;17.30;99.90;;;;;;5093763;28;19916;-23
2022/11/02 14:01:18;;;;;;;;;;;17.30;99.90;;;;;;5093726;28;19909;-23
2022/11/02 14:03:56;;;;;;;;;;;17.20;99.90;;;;;;5092819;28;19973;-23
2022/11/02 14:06:22;;;;;;;;;;;17.30;99.90;;;;;;5093535;28;20384;-23
2022/11/02 14:08:49;;;;;;;;;;;17.30;99.90;;;;;;5093108;28;20406;-23
2022/11/02 14:11:15;;;;;;;;;;;17.20;99.90;;;;;;5093390;28;19908;-23
2022/11/02 14:13:53;;;;;;;;;;;17.20;99.90;;;;;;5092878;28;20288;-23
2022/11/02 14:16:37;;;;;;;;;;;17.30;99.90;;;;;;5093045;28;19912;-23
2022/11/02 14:19:12;;;;;;;;;;;17.30;99.90;;;;;;5093221;28;19915;-23
2022/11/02 14:21:40;;;;;;;;;;;17.30;99.90;;;;;;5093219;28;19908;-23
2022/11/02 14:24:25;;;;;;;;;;;17.30;99.90;;;;;;5092748;28;19912;-23
2022/11/02 14:26:52;;;;;;;;;;;17.30;99.90;;;;;;5093048;28;19915;-23
2022/11/02 14:29:34;;;;;;;;;;;17.30;99.90;;;;;;5092920;28;19912;-23
2022/11/02 14:32:03;;;;;;;;;;;17.40;99.90;;;;;;5093047;28;19934;-23
2022/11/02 14:34:33;;;;;;;;;;;17.30;99.90;;;;;;5092580;28;19962;-23
2022/11/02 14:37:05;;;;;;;;;;;17.40;99.90;;;;;;5093334;28;20003;-23
2022/11/02 14:39:30;;;;;;;;;;;17.30;99.90;;;;;;5092717;28;20349;-23